world map with KMGN marked

KMGN - Airport

This information may not be accurate or current and is not valid for navigation or flight planning. No warranty of fitness for any purpose is made or implied.

flag of Michiganflag of United States

Donate via PayPal

Additional information is available on the NEW Great Circle Mapper

Location
City:  Harbor Springs, Michigan, United States
ICAO:KMGN
FAA:MGN

Details
Type:Airport (Airfield)
Use:Public/Civil
Latitude:45°25'32"N (45.425565)
Longitude:84°54'48"W (-84.913383)
Datum:WGS 1984
Elevation:686 ft (209 m)
Runways:1
Longest:4157 × 75 ft (1267 × 23 m)

Time
Timezone:UTC+29:08 (DST+30:08)
Local Time:

Weather
METAR:KMGN  250555Z AUTO 24006KT 10SM BKN027 OVC050 10/08 A2979 RMK AO2 T01070085

Related Locations
Nearby:
Farthest:MGV: 11114 mi / 17887 km
Margaret River, WA, AU

Find:

   beyond  
but within

Other Information
Maps:
Links:
Sources:

  

Sectional Chart

Flight Planning
at skyvector.com

 


Great Circle Mapper   Great Circle Mapper
Great Circle Mapper FAQ   Great Circle Mapper FAQ
  Karl's Home Page
KLSē   KLSē Home
   GC on Facebook
Airlines of the World   Airlines of the World
Donate via PayPal


Copyright © 2004-2014, Karl L. Swartz. All rights reserved.
All trademarks mentioned herein belong to their respective owners.

Please see credits for attribution and copyright information.

Karl Swartz <karl@kls2.com>
  Powered by FreeBSD
Valid HTML 4.01!
Labeled with ICRA
hCard Microformat
Geo Microformat